OKI973 LKPR-EPSY
Flight info
| Callsign | OKI973 |
|---|---|
| Flight time | 0h 55m |
| Altitude | 27000 |
| Route | LKPR/30 N0284F090 ARTU5B ARTUP P733 TOMTI/N0422F350 P733 EBOGU N858 GRUDA T720 IBINO IBIN1R EPSY/01 |
| Aircraft | A20N/M-SDE2E3FGHIJ1RWXYZ/LB1 |
Departure
| Time | 2026-05-05 13:17 |
|---|---|
| Airport | Václav Havel Airport Prague (LKPR) |
Arrival
| Time | 2026-05-05 14:13 |
|---|---|
| Airport | Olsztyn-Mazury Airport (EPSY) |
| Time | Latitude | Longitude | Altitude | Speed | Heading |
|---|---|---|---|---|---|
| 2026-05-05 12:50 | 50.10459 | 14.26531 | 1173 ft | 0 kts | 34° |
| 2026-05-05 13:03 | 50.10444 | 14.26515 | 1168 ft | 4 kts | 41° |
| 2026-05-05 13:03 | 50.10431 | 14.26488 | 1171 ft | 4 kts | 100° |
| 2026-05-05 13:04 | 50.10433 | 14.26476 | 1168 ft | 1 kts | 124° |
| 2026-05-05 13:06 | 50.10432 | 14.26478 | 1168 ft | 0 kts | 124° |
| 2026-05-05 13:08 | 50.10417 | 14.26512 | 1169 ft | 10 kts | 124° |
| 2026-05-05 13:08 | 50.10372 | 14.26613 | 1172 ft | 1 kts | 122° |
| 2026-05-05 13:09 | 50.10363 | 14.26619 | 1172 ft | 5 kts | 161° |
| 2026-05-05 13:09 | 50.10309 | 14.26576 | 1170 ft | 11 kts | 212° |
| 2026-05-05 13:09 | 50.10254 | 14.26523 | 1174 ft | 0 kts | 222° |
| 2026-05-05 13:09 | 50.10225 | 14.26537 | 1176 ft | 12 kts | 137° |
| 2026-05-05 13:10 | 50.10201 | 14.26592 | 1175 ft | 13 kts | 133° |
| 2026-05-05 13:10 | 50.10162 | 14.26679 | 1175 ft | 0 kts | 131° |
| 2026-05-05 13:10 | 50.10142 | 14.26711 | 1177 ft | 10 kts | 140° |
| 2026-05-05 13:10 | 50.10120 | 14.26742 | 1182 ft | 0 kts | 139° |
| 2026-05-05 13:11 | 50.10109 | 14.26772 | 1183 ft | 7 kts | 123° |
| 2026-05-05 13:11 | 50.10066 | 14.26866 | 1189 ft | 14 kts | 127° |
| 2026-05-05 13:11 | 50.10021 | 14.26974 | 1194 ft | 11 kts | 136° |
| 2026-05-05 13:11 | 50.09980 | 14.27050 | 1197 ft | 9 kts | 123° |
| 2026-05-05 13:12 | 50.09944 | 14.27133 | 1199 ft | 10 kts | 129° |
| 2026-05-05 13:12 | 50.09898 | 14.27226 | 1201 ft | 11 kts | 127° |
| 2026-05-05 13:12 | 50.09846 | 14.27318 | 1202 ft | 12 kts | 134° |
| 2026-05-05 13:12 | 50.09784 | 14.27417 | 1204 ft | 12 kts | 135° |
| 2026-05-05 13:13 | 50.09723 | 14.27511 | 1205 ft | 14 kts | 135° |
| 2026-05-05 13:13 | 50.09651 | 14.27621 | 1208 ft | 14 kts | 134° |
| 2026-05-05 13:13 | 50.09582 | 14.27729 | 1211 ft | 14 kts | 136° |
| 2026-05-05 13:13 | 50.09508 | 14.27839 | 1213 ft | 15 kts | 136° |
| 2026-05-05 13:14 | 50.09433 | 14.27950 | 1215 ft | 15 kts | 136° |
| 2026-05-05 13:14 | 50.09354 | 14.28078 | 1214 ft | 18 kts | 134° |
| 2026-05-05 13:14 | 50.09271 | 14.28207 | 1213 ft | 17 kts | 135° |
| 2026-05-05 13:14 | 50.09226 | 14.28271 | 1211 ft | 0 kts | 137° |
| 2026-05-05 13:15 | 50.09205 | 14.28290 | 1211 ft | 6 kts | 147° |
| 2026-05-05 13:15 | 50.09163 | 14.28277 | 1211 ft | 7 kts | 211° |
| 2026-05-05 13:15 | 50.09114 | 14.28226 | 1211 ft | 10 kts | 215° |
| 2026-05-05 13:15 | 50.09071 | 14.28178 | 1209 ft | 2 kts | 237° |
| 2026-05-05 13:16 | 50.09083 | 14.28090 | 1208 ft | 12 kts | 308° |
| 2026-05-05 13:16 | 50.09127 | 14.28012 | 1210 ft | 0 kts | 307° |
| 2026-05-05 13:16 | 50.09128 | 14.28010 | 1210 ft | 1 kts | 302° |
| 2026-05-05 13:16 | 50.09218 | 14.27808 | 1211 ft | 62 kts | 306° |
| 2026-05-05 13:17 | 50.09646 | 14.26914 | 1207 ft | 139 kts | 307° |
| 2026-05-05 13:17 | 50.10341 | 14.25492 | 1411 ft | 181 kts | 308° |
| 2026-05-05 13:17 | 50.11130 | 14.23849 | 2121 ft | 192 kts | 309° |
| 2026-05-05 13:17 | 50.11949 | 14.22105 | 3040 ft | 198 kts | 308° |
| 2026-05-05 13:18 | 50.12794 | 14.20353 | 3952 ft | 206 kts | 309° |
| 2026-05-05 13:18 | 50.13703 | 14.18505 | 4709 ft | 224 kts | 309° |
| 2026-05-05 13:18 | 50.14684 | 14.16514 | 5480 ft | 242 kts | 307° |
| 2026-05-05 13:18 | 50.15745 | 14.14327 | 6258 ft | 261 kts | 306° |
| 2026-05-05 13:19 | 50.16886 | 14.11953 | 7005 ft | 279 kts | 306° |
| 2026-05-05 13:19 | 50.18067 | 14.09497 | 7758 ft | 294 kts | 305° |
| 2026-05-05 13:19 | 50.19309 | 14.06903 | 8504 ft | 308 kts | 305° |
| 2026-05-05 13:19 | 50.20621 | 14.04163 | 9302 ft | 322 kts | 304° |
| 2026-05-05 13:20 | 50.22184 | 14.01509 | 10063 ft | 337 kts | 321° |
| 2026-05-05 13:20 | 50.24314 | 13.99827 | 10806 ft | 352 kts | 343° |
| 2026-05-05 13:20 | 50.26797 | 13.99453 | 11566 ft | 365 kts | 5° |
| 2026-05-05 13:20 | 50.29301 | 14.00515 | 12330 ft | 376 kts | 26° |
| 2026-05-05 13:21 | 50.30783 | 14.01936 | 12853 ft | 382 kts | 39° |
| 2026-05-05 13:21 | 50.32633 | 14.05069 | 13659 ft | 390 kts | 57° |
| 2026-05-05 13:21 | 50.34047 | 14.08812 | 14378 ft | 398 kts | 61° |
| 2026-05-05 13:21 | 50.35496 | 14.12563 | 15110 ft | 406 kts | 58° |
| 2026-05-05 13:22 | 50.36858 | 14.16458 | 15851 ft | 413 kts | 66° |
| 2026-05-05 13:22 | 50.37850 | 14.20725 | 16624 ft | 420 kts | 77° |
| 2026-05-05 13:22 | 50.38416 | 14.25203 | 17400 ft | 425 kts | 81° |
| 2026-05-05 13:22 | 50.38967 | 14.29879 | 18203 ft | 431 kts | 81° |
| 2026-05-05 13:23 | 50.39530 | 14.34532 | 18899 ft | 436 kts | 81° |
| 2026-05-05 13:23 | 50.40099 | 14.39228 | 19625 ft | 439 kts | 81° |
| 2026-05-05 13:23 | 50.40588 | 14.43291 | 20261 ft | 433 kts | 81° |
| 2026-05-05 13:23 | 50.41142 | 14.47922 | 21014 ft | 431 kts | 81° |
| 2026-05-05 13:24 | 50.41689 | 14.52542 | 21771 ft | 429 kts | 81° |
| 2026-05-05 13:24 | 50.42231 | 14.57133 | 22573 ft | 426 kts | 81° |
| 2026-05-05 13:24 | 50.42980 | 14.61617 | 23380 ft | 425 kts | 69° |
| 2026-05-05 13:24 | 50.44431 | 14.65699 | 24081 ft | 423 kts | 53° |
| 2026-05-05 13:25 | 50.46422 | 14.68902 | 24775 ft | 419 kts | 37° |
| 2026-05-05 13:25 | 50.48909 | 14.71484 | 25518 ft | 414 kts | 30° |
| 2026-05-05 13:25 | 50.51370 | 14.73769 | 26088 ft | 414 kts | 29° |
| 2026-05-05 13:25 | 50.53898 | 14.76115 | 26570 ft | 416 kts | 30° |
| 2026-05-05 13:26 | 50.56400 | 14.78495 | 26762 ft | 426 kts | 30° |
| 2026-05-05 13:26 | 50.58963 | 14.80987 | 26798 ft | 440 kts | 31° |
| 2026-05-05 13:26 | 50.61631 | 14.83620 | 26799 ft | 453 kts | 31° |
| 2026-05-05 13:26 | 50.64372 | 14.86344 | 26801 ft | 466 kts | 31° |
| 2026-05-05 13:27 | 50.67147 | 14.89128 | 26802 ft | 478 kts | 33° |
| 2026-05-05 13:27 | 50.69818 | 14.92355 | 26803 ft | 489 kts | 40° |
| 2026-05-05 13:27 | 50.72305 | 14.95959 | 26795 ft | 495 kts | 42° |
| 2026-05-05 13:27 | 50.74839 | 14.99626 | 26805 ft | 493 kts | 42° |
| 2026-05-05 13:28 | 50.77376 | 15.03280 | 26798 ft | 494 kts | 42° |
| 2026-05-05 13:28 | 50.79915 | 15.06943 | 26809 ft | 494 kts | 42° |
| 2026-05-05 13:28 | 50.82452 | 15.10612 | 26798 ft | 494 kts | 42° |
| 2026-05-05 13:28 | 50.84979 | 15.14275 | 26807 ft | 494 kts | 42° |
| 2026-05-05 13:29 | 50.87522 | 15.17969 | 26806 ft | 494 kts | 42° |
| 2026-05-05 13:29 | 50.90049 | 15.21647 | 26808 ft | 494 kts | 42° |
| 2026-05-05 13:29 | 50.92616 | 15.25391 | 26817 ft | 494 kts | 42° |
| 2026-05-05 13:29 | 50.95198 | 15.29122 | 26810 ft | 494 kts | 39° |
| 2026-05-05 13:30 | 50.97904 | 15.32472 | 26819 ft | 494 kts | 36° |
| 2026-05-05 13:30 | 51.00448 | 15.35542 | 26816 ft | 494 kts | 36° |
| 2026-05-05 13:30 | 51.03184 | 15.38860 | 26808 ft | 495 kts | 36° |
| 2026-05-05 13:30 | 51.05955 | 15.42231 | 26812 ft | 495 kts | 36° |
| 2026-05-05 13:31 | 51.08688 | 15.45562 | 26818 ft | 495 kts | 36° |
| 2026-05-05 13:31 | 51.11422 | 15.48897 | 26817 ft | 495 kts | 36° |
| 2026-05-05 13:31 | 51.14189 | 15.52279 | 26821 ft | 495 kts | 36° |
| 2026-05-05 13:31 | 51.16958 | 15.55667 | 26819 ft | 495 kts | 36° |
| 2026-05-05 13:32 | 51.19728 | 15.59060 | 26829 ft | 495 kts | 36° |
| 2026-05-05 13:32 | 51.22451 | 15.62402 | 26812 ft | 495 kts | 36° |
| 2026-05-05 13:32 | 51.24326 | 15.64707 | 26827 ft | 495 kts | 36° |
| 2026-05-05 13:32 | 51.27096 | 15.68115 | 26811 ft | 495 kts | 36° |
| 2026-05-05 13:33 | 51.29824 | 15.71476 | 26811 ft | 495 kts | 36° |
| 2026-05-05 13:33 | 51.32516 | 15.74799 | 26811 ft | 495 kts | 36° |
| 2026-05-05 13:33 | 51.34643 | 15.77427 | 26815 ft | 495 kts | 36° |
| 2026-05-05 13:33 | 51.37376 | 15.80809 | 26819 ft | 495 kts | 36° |
| 2026-05-05 13:34 | 51.40133 | 15.84227 | 26838 ft | 495 kts | 36° |
| 2026-05-05 13:34 | 51.42892 | 15.87653 | 26835 ft | 495 kts | 36° |
| 2026-05-05 13:34 | 51.45611 | 15.91033 | 26820 ft | 495 kts | 36° |
| 2026-05-05 13:34 | 51.48368 | 15.94467 | 26825 ft | 495 kts | 36° |
| 2026-05-05 13:35 | 51.51039 | 15.97797 | 26825 ft | 495 kts | 36° |
| 2026-05-05 13:35 | 51.53843 | 16.01300 | 26823 ft | 495 kts | 36° |
| 2026-05-05 13:35 | 51.56560 | 16.04699 | 26828 ft | 495 kts | 36° |
| 2026-05-05 13:35 | 51.59280 | 16.08108 | 26827 ft | 495 kts | 36° |
| 2026-05-05 13:36 | 51.61996 | 16.11516 | 26827 ft | 495 kts | 36° |
| 2026-05-05 13:36 | 51.64458 | 16.14593 | 26829 ft | 495 kts | 35° |
| 2026-05-05 13:36 | 51.67068 | 16.17713 | 26827 ft | 495 kts | 34° |
| 2026-05-05 13:36 | 51.69860 | 16.20979 | 26830 ft | 495 kts | 34° |
| 2026-05-05 13:37 | 51.72685 | 16.24281 | 26831 ft | 495 kts | 34° |
| 2026-05-05 13:37 | 51.75470 | 16.27559 | 26833 ft | 495 kts | 34° |
| 2026-05-05 13:37 | 51.78249 | 16.30847 | 26835 ft | 496 kts | 34° |
| 2026-05-05 13:37 | 51.81037 | 16.34161 | 26832 ft | 496 kts | 34° |
| 2026-05-05 13:38 | 51.83805 | 16.37461 | 26833 ft | 496 kts | 34° |
| 2026-05-05 13:38 | 51.86584 | 16.40780 | 26831 ft | 496 kts | 34° |
| 2026-05-05 13:38 | 51.89364 | 16.44106 | 26835 ft | 496 kts | 34° |
| 2026-05-05 13:38 | 51.92139 | 16.47431 | 26837 ft | 497 kts | 34° |
| 2026-05-05 13:39 | 51.94927 | 16.50779 | 26838 ft | 497 kts | 34° |
| 2026-05-05 13:39 | 51.97750 | 16.54179 | 26836 ft | 497 kts | 34° |
| 2026-05-05 13:39 | 52.00546 | 16.57553 | 26837 ft | 497 kts | 34° |
| 2026-05-05 13:39 | 52.02820 | 16.60300 | 26836 ft | 498 kts | 34° |
| 2026-05-05 13:40 | 52.05636 | 16.63707 | 26839 ft | 497 kts | 34° |
| 2026-05-05 13:40 | 52.08410 | 16.67068 | 26841 ft | 498 kts | 34° |
| 2026-05-05 13:40 | 52.11183 | 16.70433 | 26844 ft | 498 kts | 34° |
| 2026-05-05 13:40 | 52.13965 | 16.73808 | 26844 ft | 498 kts | 33° |
| 2026-05-05 13:41 | 52.16795 | 16.77024 | 26850 ft | 497 kts | 31° |
| 2026-05-05 13:41 | 52.19720 | 16.80199 | 26853 ft | 497 kts | 31° |
| 2026-05-05 13:41 | 52.22605 | 16.83315 | 26853 ft | 497 kts | 31° |
| 2026-05-05 13:41 | 52.25523 | 16.86497 | 26852 ft | 498 kts | 31° |
| 2026-05-05 13:42 | 52.28394 | 16.89654 | 26854 ft | 498 kts | 31° |
| 2026-05-05 13:42 | 52.31266 | 16.92833 | 26854 ft | 498 kts | 31° |
| 2026-05-05 13:42 | 52.34131 | 16.96017 | 26857 ft | 498 kts | 31° |
| 2026-05-05 13:42 | 52.37033 | 16.99248 | 26858 ft | 498 kts | 31° |
| 2026-05-05 13:43 | 52.39898 | 17.02445 | 26855 ft | 498 kts | 31° |
| 2026-05-05 13:43 | 52.42584 | 17.05446 | 26857 ft | 498 kts | 31° |
| 2026-05-05 13:43 | 52.45444 | 17.08646 | 26855 ft | 499 kts | 31° |
| 2026-05-05 13:43 | 52.48393 | 17.11950 | 26856 ft | 499 kts | 32° |
| 2026-05-05 13:44 | 52.51255 | 17.15163 | 26858 ft | 499 kts | 32° |
| 2026-05-05 13:44 | 52.54160 | 17.18429 | 26863 ft | 499 kts | 32° |
| 2026-05-05 13:44 | 52.57030 | 17.21660 | 26858 ft | 499 kts | 32° |
| 2026-05-05 13:44 | 52.59003 | 17.23885 | 26859 ft | 499 kts | 32° |
| 2026-05-05 13:45 | 52.61901 | 17.27158 | 26861 ft | 499 kts | 32° |
| 2026-05-05 13:45 | 52.64726 | 17.30352 | 26860 ft | 499 kts | 32° |
| 2026-05-05 13:45 | 52.67623 | 17.33633 | 26859 ft | 499 kts | 32° |
| 2026-05-05 13:45 | 52.70522 | 17.36923 | 26862 ft | 499 kts | 32° |
| 2026-05-05 13:46 | 52.73366 | 17.40155 | 26861 ft | 499 kts | 32° |
| 2026-05-05 13:46 | 52.76329 | 17.43527 | 26865 ft | 499 kts | 32° |
| 2026-05-05 13:46 | 52.79262 | 17.46869 | 26865 ft | 499 kts | 32° |
| 2026-05-05 13:46 | 52.82071 | 17.50321 | 26865 ft | 501 kts | 38° |
| 2026-05-05 13:47 | 52.84532 | 17.54407 | 26866 ft | 504 kts | 49° |
| 2026-05-05 13:47 | 52.86587 | 17.59444 | 26863 ft | 499 kts | 59° |
| 2026-05-05 13:47 | 52.88239 | 17.64239 | 26734 ft | 483 kts | 60° |
| 2026-05-05 13:47 | 52.89706 | 17.68614 | 26376 ft | 474 kts | 60° |
| 2026-05-05 13:48 | 52.91025 | 17.72581 | 25961 ft | 470 kts | 60° |
| 2026-05-05 13:48 | 52.92595 | 17.77323 | 25467 ft | 469 kts | 60° |
| 2026-05-05 13:48 | 52.94178 | 17.82110 | 24979 ft | 467 kts | 61° |
| 2026-05-05 13:48 | 52.95756 | 17.86889 | 24492 ft | 464 kts | 61° |
| 2026-05-05 13:49 | 52.97297 | 17.91562 | 24029 ft | 460 kts | 61° |
| 2026-05-05 13:49 | 52.98822 | 17.96195 | 23675 ft | 456 kts | 61° |
| 2026-05-05 13:49 | 53.00344 | 18.00825 | 23312 ft | 456 kts | 61° |
| 2026-05-05 13:49 | 53.01876 | 18.05494 | 22900 ft | 454 kts | 61° |
| 2026-05-05 13:50 | 53.03381 | 18.10092 | 22491 ft | 451 kts | 61° |
| 2026-05-05 13:50 | 53.04880 | 18.14676 | 22092 ft | 448 kts | 61° |
| 2026-05-05 13:50 | 53.06356 | 18.19203 | 21703 ft | 445 kts | 61° |
| 2026-05-05 13:50 | 53.07828 | 18.23721 | 21313 ft | 443 kts | 61° |
| 2026-05-05 13:51 | 53.09291 | 18.28224 | 20931 ft | 441 kts | 62° |
| 2026-05-05 13:51 | 53.10738 | 18.32683 | 20554 ft | 438 kts | 62° |
| 2026-05-05 13:51 | 53.12183 | 18.37146 | 20179 ft | 435 kts | 62° |
| 2026-05-05 13:51 | 53.13691 | 18.41813 | 19786 ft | 433 kts | 62° |
| 2026-05-05 13:52 | 53.15112 | 18.46216 | 19429 ft | 431 kts | 62° |
| 2026-05-05 13:52 | 53.16523 | 18.50600 | 19077 ft | 429 kts | 62° |
| 2026-05-05 13:52 | 53.17475 | 18.53560 | 18833 ft | 427 kts | 62° |
| 2026-05-05 13:52 | 53.18915 | 18.58049 | 18463 ft | 424 kts | 62° |
| 2026-05-05 13:53 | 53.20318 | 18.62428 | 18113 ft | 422 kts | 62° |
| 2026-05-05 13:53 | 53.21707 | 18.66769 | 17706 ft | 420 kts | 62° |
| 2026-05-05 13:53 | 53.23082 | 18.71077 | 17300 ft | 417 kts | 62° |
| 2026-05-05 13:53 | 53.24441 | 18.75342 | 16914 ft | 414 kts | 62° |
| 2026-05-05 13:54 | 53.25790 | 18.79581 | 16531 ft | 412 kts | 62° |
| 2026-05-05 13:54 | 53.27152 | 18.83869 | 16138 ft | 410 kts | 62° |
| 2026-05-05 13:54 | 53.28482 | 18.88063 | 15765 ft | 407 kts | 62° |
| 2026-05-05 13:54 | 53.29822 | 18.92297 | 15390 ft | 405 kts | 62° |
| 2026-05-05 13:55 | 53.31116 | 18.96396 | 14994 ft | 402 kts | 63° |
| 2026-05-05 13:55 | 53.32434 | 19.00575 | 14504 ft | 399 kts | 63° |
| 2026-05-05 13:55 | 53.33756 | 19.04773 | 14017 ft | 396 kts | 63° |
| 2026-05-05 13:55 | 53.35048 | 19.08882 | 13522 ft | 393 kts | 63° |
| 2026-05-05 13:56 | 53.36296 | 19.12853 | 13023 ft | 390 kts | 63° |
| 2026-05-05 13:56 | 53.37572 | 19.16920 | 12626 ft | 388 kts | 63° |
| 2026-05-05 13:56 | 53.38839 | 19.20975 | 12245 ft | 386 kts | 63° |
| 2026-05-05 13:56 | 53.40080 | 19.24949 | 11847 ft | 383 kts | 64° |
| 2026-05-05 13:57 | 53.41329 | 19.28957 | 11469 ft | 382 kts | 64° |
| 2026-05-05 13:57 | 53.42550 | 19.32880 | 11093 ft | 378 kts | 64° |
| 2026-05-05 13:57 | 53.43766 | 19.36794 | 10720 ft | 378 kts | 64° |
| 2026-05-05 13:57 | 53.44978 | 19.40705 | 10358 ft | 377 kts | 65° |
| 2026-05-05 13:58 | 53.46181 | 19.44589 | 10004 ft | 374 kts | 65° |
| 2026-05-05 13:58 | 53.47392 | 19.48504 | 9631 ft | 373 kts | 65° |
| 2026-05-05 13:58 | 53.48596 | 19.52403 | 9232 ft | 368 kts | 65° |
| 2026-05-05 13:58 | 53.49780 | 19.56248 | 8820 ft | 363 kts | 65° |
| 2026-05-05 13:59 | 53.52048 | 19.63627 | 8061 ft | 348 kts | 65° |
| 2026-05-05 13:59 | 53.53136 | 19.67168 | 8009 ft | 332 kts | 65° |
| 2026-05-05 14:00 | 53.55218 | 19.73976 | 8012 ft | 328 kts | 65° |
| 2026-05-05 14:00 | 53.55920 | 19.76276 | 8014 ft | 327 kts | 65° |
| 2026-05-05 14:00 | 53.57316 | 19.80857 | 7997 ft | 327 kts | 65° |
| 2026-05-05 14:00 | 53.58340 | 19.84364 | 8009 ft | 326 kts | 72° |
| 2026-05-05 14:01 | 53.58703 | 19.88019 | 8013 ft | 319 kts | 97° |
| 2026-05-05 14:01 | 53.58202 | 19.91571 | 8020 ft | 310 kts | 117° |
| 2026-05-05 14:01 | 53.57303 | 19.94909 | 8008 ft | 308 kts | 121° |
| 2026-05-05 14:01 | 53.56360 | 19.98142 | 8018 ft | 307 kts | 121° |
| 2026-05-05 14:02 | 53.55402 | 20.01359 | 8015 ft | 307 kts | 122° |
| 2026-05-05 14:02 | 53.54742 | 20.03522 | 8004 ft | 307 kts | 122° |
| 2026-05-05 14:02 | 53.53768 | 20.06728 | 7791 ft | 309 kts | 121° |
| 2026-05-05 14:02 | 53.52809 | 20.09929 | 7537 ft | 305 kts | 121° |
| 2026-05-05 14:03 | 53.51847 | 20.13176 | 7285 ft | 305 kts | 121° |
| 2026-05-05 14:03 | 53.50911 | 20.16357 | 7076 ft | 303 kts | 120° |
| 2026-05-05 14:03 | 53.49976 | 20.19537 | 7006 ft | 303 kts | 120° |
| 2026-05-05 14:03 | 53.49063 | 20.22643 | 7008 ft | 304 kts | 120° |
| 2026-05-05 14:04 | 53.48130 | 20.25813 | 7000 ft | 302 kts | 120° |
| 2026-05-05 14:04 | 53.47171 | 20.29056 | 6997 ft | 315 kts | 120° |
| 2026-05-05 14:04 | 53.46204 | 20.32318 | 6995 ft | 305 kts | 120° |
| 2026-05-05 14:04 | 53.45275 | 20.35468 | 6998 ft | 287 kts | 120° |
| 2026-05-05 14:05 | 53.44407 | 20.38410 | 6999 ft | 281 kts | 121° |
| 2026-05-05 14:05 | 53.43525 | 20.41365 | 6970 ft | 285 kts | 121° |
| 2026-05-05 14:05 | 53.42627 | 20.44373 | 6735 ft | 283 kts | 120° |
| 2026-05-05 14:05 | 53.41755 | 20.47295 | 6488 ft | 279 kts | 120° |
| 2026-05-05 14:06 | 53.40879 | 20.50229 | 6251 ft | 281 kts | 120° |
| 2026-05-05 14:06 | 53.40011 | 20.53138 | 5999 ft | 277 kts | 120° |
| 2026-05-05 14:06 | 53.39142 | 20.56051 | 5737 ft | 275 kts | 120° |
| 2026-05-05 14:06 | 53.38285 | 20.58908 | 5486 ft | 273 kts | 120° |
| 2026-05-05 14:07 | 53.37433 | 20.61748 | 5238 ft | 272 kts | 120° |
| 2026-05-05 14:07 | 53.36573 | 20.64547 | 4983 ft | 267 kts | 125° |
| 2026-05-05 14:07 | 53.35460 | 20.66995 | 4747 ft | 264 kts | 131° |
| 2026-05-05 14:07 | 53.34353 | 20.69480 | 4460 ft | 262 kts | 128° |
| 2026-05-05 14:08 | 53.33344 | 20.72002 | 3997 ft | 267 kts | 124° |
| 2026-05-05 14:08 | 53.32367 | 20.74781 | 3480 ft | 271 kts | 120° |
| 2026-05-05 14:08 | 53.31595 | 20.77654 | 2955 ft | 271 kts | 103° |
| 2026-05-05 14:08 | 53.31543 | 20.80790 | 2457 ft | 265 kts | 78° |
| 2026-05-05 14:09 | 53.32282 | 20.83523 | 2113 ft | 256 kts | 49° |
| 2026-05-05 14:09 | 53.33624 | 20.85313 | 2006 ft | 239 kts | 29° |
| 2026-05-05 14:09 | 53.35077 | 20.86399 | 1995 ft | 218 kts | 21° |
| 2026-05-05 14:09 | 53.36427 | 20.87185 | 2005 ft | 194 kts | 20° |
| 2026-05-05 14:10 | 53.37759 | 20.87945 | 1995 ft | 203 kts | 20° |
| 2026-05-05 14:10 | 53.39013 | 20.88641 | 2004 ft | 175 kts | 20° |
| 2026-05-05 14:10 | 53.40075 | 20.89234 | 1975 ft | 147 kts | 20° |
| 2026-05-05 14:10 | 53.41003 | 20.89754 | 1772 ft | 131 kts | 20° |
| 2026-05-05 14:11 | 53.41866 | 20.90235 | 1611 ft | 134 kts | 19° |
| 2026-05-05 14:11 | 53.42769 | 20.90739 | 1409 ft | 137 kts | 19° |
| 2026-05-05 14:11 | 53.43688 | 20.91253 | 1229 ft | 141 kts | 19° |
| 2026-05-05 14:11 | 53.44610 | 20.91767 | 1040 ft | 138 kts | 19° |
| 2026-05-05 14:12 | 53.45540 | 20.92285 | 842 ft | 140 kts | 19° |
| 2026-05-05 14:12 | 53.46452 | 20.92805 | 641 ft | 138 kts | 17° |
| 2026-05-05 14:12 | 53.47366 | 20.93312 | 459 ft | 138 kts | 18° |
| 2026-05-05 14:12 | 53.48161 | 20.93757 | 471 ft | 88 kts | 18° |
| 2026-05-05 14:13 | 53.48528 | 20.93962 | 470 ft | 34 kts | 18° |
| 2026-05-05 14:13 | 53.48723 | 20.94073 | 467 ft | 17 kts | 25° |
| 2026-05-05 14:13 | 53.48792 | 20.94188 | 467 ft | 11 kts | 87° |
| 2026-05-05 14:13 | 53.48780 | 20.94287 | 467 ft | 14 kts | 102° |
| 2026-05-05 14:14 | 53.48759 | 20.94407 | 466 ft | 3 kts | 111° |
| 2026-05-05 14:14 | 53.48749 | 20.94458 | 466 ft | 6 kts | 108° |
| 2026-05-05 14:14 | 53.48742 | 20.94493 | 465 ft | 0 kts | 109° |